Seas 1 — A8ZT2 — position and weather

sailwx.info

Track history (hours):
 
Tides and Currents Weather Stations Pressure Air Temp Water Temp Dewpoint Dewpoint Depression Visibility Wind Speed Wind Dir Waves Ship Positions

Seas 1

Last reported at 2017-Nov-15 04:23 UTC. Time now 2017-Nov-23 13:05 UTC.
Position N 28°54' W 014°42'.
Warning: this ship's position is 8 days out of date.

Length 190 m; draft 10.5 m.

Type: Cargo ship. MMSI: 636015292.

Date/timePositionNaut miles runAvg speedWind from/ knotsBaromVisibWave heightAir tempDewpointWater temp
2017-Nov-15 04:23N 28°54' W 014°42'410.5
2017-Nov-15 03:59N 28°50' W 014°42'510.3
2017-Nov-15 03:30N 28°45' W 014°43'510.1
2017-Nov-15 03:00N 28°40' W 014°43'510.3
2017-Nov-15 02:30N 28°35' W 014°43'5 9.9
2017-Nov-15 02:00N 28°30' W 014°45'510.3
2017-Nov-15 01:31N 28°26' W 014°46'510.5
2017-Nov-15 01:00N 28°21' W 014°49'510.5
2017-Nov-15 00:31N 28°16' W 014°51'510.5
2017-Nov-15 00:01N 28°11' W 014°53'510.4
2017-Nov-14 23:31N 28°06' W 014°56'5 9.4
2017-Nov-14 23:00N 28°05' W 015°01'510.6
2017-Nov-14 22:30N 28°05' W 015°07'510.9
2017-Nov-14 22:00N 28°05' W 015°13'510.8
2017-Nov-14 21:30N 28°06' W 015°19'5 9.5
2017-Nov-14 21:00N 28°07' W 015°24'0 0.8
2017-Nov-14 20:30N 28°07' W 015°25'0 0.0
2017-Nov-14 20:00N 28°07' W 015°25'0 0.0
2017-Nov-14 19:30N 28°07' W 015°25'0 0.0
2017-Nov-14 19:00N 28°07' W 015°25'0 0.0
2017-Nov-14 18:30N 28°07' W 015°25'0 0.0
2017-Nov-14 18:00N 28°07' W 015°25'0 0.0
2017-Nov-14 17:30N 28°07' W 015°25'0 0.0
2017-Nov-14 16:51N 28°07' W 015°25'0 0.1
2017-Nov-14 16:18N 28°07' W 015°25'0 0.0
2017-Nov-14 15:54N 28°07' W 015°25'0 0.0
2017-Nov-14 15:21N 28°07' W 015°25'0 0.0
2017-Nov-14 14:54N 28°07' W 015°25'0 0.0
2017-Nov-14 14:24N 28°07' W 015°25'0 0.0
2017-Nov-14 13:54N 28°07' W 015°25'0 0.0
2017-Nov-14 13:24N 28°07' W 015°25'0 0.1
2017-Nov-14 12:57N 28°07' W 015°25'0 0.0
2017-Nov-14 12:27N 28°07' W 015°25'0 0.1
2017-Nov-14 11:57N 28°07' W 015°25'0 0.1
2017-Nov-14 11:27N 28°07' W 015°25'0 0.0
2017-Nov-14 10:57N 28°07' W 015°25'0 0.1
2017-Nov-14 10:30N 28°07' W 015°25'0 0.0
2017-Nov-14 10:00N 28°07' W 015°25'0 0.1
2017-Nov-14 09:30N 28°07' W 015°25'0 0.0
2017-Nov-14 09:00N 28°07' W 015°25'0 0.0
2017-Nov-14 08:30N 28°07' W 015°25'0 0.1
2017-Nov-14 08:00N 28°07' W 015°25'2 3.9
2017-Nov-14 07:30N 28°06' W 015°23'1 1.6
2017-Nov-14 06:58N 28°05' W 015°23'0 0.1
2017-Nov-14 06:28N 28°05' W 015°23'0 0.0
2017-Nov-14 05:58N 28°05' W 015°23'0 0.0
2017-Nov-14 05:28N 28°05' W 015°23'0 0.0
2017-Nov-14 04:46N 28°05' W 015°23'0 0.0
2017-Nov-14 04:28N 28°05' W 015°23'0 0.0
2017-Nov-14 03:58N 28°05' W 015°23'0 0.0
2017-Nov-14 03:19N 28°05' W 015°23'0 0.0
2017-Nov-14 02:49N 28°05' W 015°23'0 0.0
2017-Nov-14 02:28N 28°05' W 015°23'0 0.1
2017-Nov-14 01:58N 28°05' W 015°23'0 0.0
2017-Nov-14 01:19N 28°05' W 015°23'0 0.0
2017-Nov-14 00:49N 28°05' W 015°23'0 0.0
2017-Nov-14 00:22N 28°05' W 015°23'0 0.0
2017-Nov-13 23:52N 28°05' W 015°23'0 0.0
2017-Nov-13 23:22N 28°05' W 015°23'0 0.1
2017-Nov-13 22:52N 28°05' W 015°23'0 0.0
2017-Nov-13 22:22N 28°05' W 015°23'0 0.0
2017-Nov-13 21:55N 28°05' W 015°23'0 0.0
2017-Nov-13 01:58N 28°05' W 015°23'0 0.0
2017-Nov-13 01:28N 28°05' W 015°23'0 0.0
2017-Nov-13 00:58N 28°05' W 015°23'0 0.0
2017-Nov-13 00:28N 28°05' W 015°23'0 0.0
2017-Nov-12 23:58N 28°05' W 015°23'0 0.0
2017-Nov-12 23:28N 28°05' W 015°23'0 0.0
2017-Nov-12 22:58N 28°05' W 015°23'0 0.0
2017-Nov-12 22:28N 28°05' W 015°23'0 0.0
2017-Nov-12 21:49N 28°05' W 015°23'0 0.0
2017-Nov-12 21:19N 28°05' W 015°23'0 0.0
2017-Nov-12 20:52N 28°05' W 015°23'0 0.0
2017-Nov-12 20:22N 28°05' W 015°23'0 0.0
2017-Nov-12 19:52N 28°05' W 015°23'0 0.0
2017-Nov-12 19:19N 28°05' W 015°23'0 0.0
2017-Nov-12 18:52N 28°05' W 015°23'0 0.0
2017-Nov-12 18:22N 28°05' W 015°23'0 0.1
2017-Nov-12 17:52N 28°05' W 015°23'0 0.0
2017-Nov-12 17:25N 28°05' W 015°23'0 0.0
2017-Nov-12 16:55N 28°05' W 015°23'0 0.1
2017-Nov-12 16:22N 28°05' W 015°23'0 0.1
2017-Nov-12 15:52N 28°05' W 015°23'0 0.0
2017-Nov-12 15:25N 28°05' W 015°23'0 0.0
2017-Nov-12 14:58N 28°05' W 015°23'0 0.0
2017-Nov-12 14:28N 28°05' W 015°23'0 0.0
2017-Nov-12 13:58N 28°05' W 015°23'0 0.0
2017-Nov-12 13:29N 28°05' W 015°23'0 0.1
2017-Nov-12 12:59N 28°05' W 015°23'0 0.0
2017-Nov-12 12:20N 28°05' W 015°23'0 0.0
2017-Nov-12 11:47N 28°05' W 015°23'0 0.0
2017-Nov-12 11:20N 28°05' W 015°23'0 0.1
2017-Nov-12 10:53N 28°05' W 015°23'0 0.0
2017-Nov-12 10:23N 28°05' W 015°23'0 0.0
2017-Nov-12 09:53N 28°05' W 015°23'0 0.0
2017-Nov-12 09:23N 28°05' W 015°23'0 0.1
2017-Nov-12 08:53N 28°05' W 015°23'0 0.0
2017-Nov-12 08:26N 28°05' W 015°23'0 0.0
2017-Nov-12 07:56N 28°05' W 015°23'0 0.0
2017-Nov-12 07:26N 28°05' W 015°23'0 0.0
2017-Nov-12 06:56N 28°05' W 015°23'0 0.0
2017-Nov-12 06:26N 28°05' W 015°23'0 0.0
2017-Nov-12 05:59N 28°05' W 015°23'0 0.0
2017-Nov-12 05:26N 28°05' W 015°23'0 0.0
2017-Nov-12 04:56N 28°05' W 015°23'0 0.0
2017-Nov-12 04:29N 28°05' W 015°23'0 0.0
2017-Nov-12 03:59N 28°05' W 015°23'0 0.0
2017-Nov-12 03:29N 28°05' W 015°23'0 0.0
2017-Nov-12 02:59N 28°05' W 015°23'0 0.0
2017-Nov-12 02:29N 28°05' W 015°23'0 0.0
2017-Nov-12 01:59N 28°05' W 015°23'0 0.0
2017-Nov-12 01:14N 28°05' W 015°23'0 0.0
2017-Nov-12 00:47N 28°05' W 015°23'0 0.1
2017-Nov-12 00:29N 28°05' W 015°23'0 0.0
2017-Nov-11 23:59N 28°05' W 015°23'0 0.0
2017-Nov-11 23:20N 28°05' W 015°23'0 0.1
2017-Nov-11 22:59N 28°05' W 015°23'0 0.0
2017-Nov-11 22:20N 28°05' W 015°23'0 0.0
2017-Nov-11 21:50N 28°05' W 015°23'0 0.0
2017-Nov-11 21:20N 28°05' W 015°23'0 0.0
2017-Nov-11 20:50N 28°05' W 015°23'0 0.0
2017-Nov-11 20:23N 28°05' W 015°23'0 0.0
2017-Nov-11 19:53N 28°05' W 015°23'0 0.0
2017-Nov-11 19:23N 28°05' W 015°23'0 0.0
2017-Nov-11 18:53N 28°05' W 015°23'0 0.0
2017-Nov-11 18:23N 28°05' W 015°23'0 0.0
2017-Nov-11 17:56N 28°05' W 015°23'0 0.0
2017-Nov-11 17:26N 28°05' W 015°23'0 0.0
2017-Nov-11 16:56N 28°05' W 015°23'0 0.0
2017-Nov-11 16:11N 28°05' W 015°23'0 0.0
2017-Nov-11 15:56N 28°05' W 015°23'0 0.0
2017-Nov-11 15:29N 28°05' W 015°23'0 0.0
2017-Nov-11 14:59N 28°05' W 015°23'0 0.0
2017-Nov-11 14:29N 28°05' W 015°23'0 0.0
2017-Nov-11 13:56N 28°05' W 015°23'0 0.0
2017-Nov-11 13:29N 28°05' W 015°23'0 0.0
2017-Nov-11 12:59N 28°05' W 015°23'0 0.0
2017-Nov-11 12:29N 28°05' W 015°23'0 0.0
2017-Nov-11 11:59N 28°05' W 015°23'0 0.0
2017-Nov-11 11:17N 28°05' W 015°23'0 0.1
2017-Nov-11 10:47N 28°05' W 015°23'0 0.1
2017-Nov-11 10:29N 28°05' W 015°23'0 0.1
2017-Nov-11 09:59N 28°05' W 015°23'0 0.0
2017-Nov-11 09:29N 28°05' W 015°23'0 0.0
2017-Nov-11 08:59N 28°05' W 015°23'0 0.0
2017-Nov-11 08:29N 28°05' W 015°23'0 0.1
2017-Nov-11 07:59N 28°05' W 015°23'0 0.1
2017-Nov-11 07:23N 28°05' W 015°23'0 0.0
2017-Nov-11 06:59N 28°05' W 015°23'0 0.0
2017-Nov-11 06:23N 28°05' W 015°23'0 0.0
2017-Nov-11 05:53N 28°05' W 015°23'0 0.0
2017-Nov-11 05:26N 28°05' W 015°23'0 0.0
2017-Nov-11 04:53N 28°05' W 015°23'0 0.0
2017-Nov-11 04:26N 28°05' W 015°23'0 0.0
2017-Nov-11 03:59N 28°05' W 015°23'0 0.0
2017-Nov-11 03:26N 28°05' W 015°23'0 0.0
2017-Nov-11 02:56N 28°05' W 015°23'0 0.0
2017-Nov-11 02:26N 28°05' W 015°23'0 0.0
2017-Nov-11 01:56N 28°05' W 015°23'0 0.0
2017-Nov-11 01:26N 28°05' W 015°23'0 0.1
2017-Nov-11 00:59N 28°05' W 015°23'0 0.0
2017-Nov-11 00:29N 28°05' W 015°23'0 0.1
2017-Nov-10 23:59N 28°05' W 015°23'0 0.0
2017-Nov-10 23:29N 28°05' W 015°23'0 0.0
2017-Nov-10 22:56N 28°05' W 015°23'0 0.0
2017-Nov-10 22:26N 28°05' W 015°23'0 0.0
2017-Nov-10 21:59N 28°05' W 015°23'0 0.0
2017-Nov-10 21:29N 28°05' W 015°23'0 0.1
2017-Nov-10 20:59N 28°05' W 015°23'0 0.0
2017-Nov-10 20:29N 28°05' W 015°23'0 0.0
2017-Nov-10 19:59N 28°05' W 015°23'0 0.0
2017-Nov-10 19:29N 28°05' W 015°23'0 0.0
2017-Nov-10 18:59N 28°05' W 015°23'0 0.0
2017-Nov-10 18:20N 28°05' W 015°23'0 0.0
2017-Nov-10 17:50N 28°05' W 015°23'0 0.0
2017-Nov-10 17:20N 28°05' W 015°23'0 0.0
2017-Nov-10 16:53N 28°05' W 015°23'0 0.1
2017-Nov-10 16:08N 28°05' W 015°23'0 0.0
2017-Nov-10 15:50N 28°05' W 015°23'0 0.0
2017-Nov-10 15:23N 28°05' W 015°23'0 0.0
2017-Nov-10 14:50N 28°05' W 015°23'0 0.0
2017-Nov-10 14:23N 28°05' W 015°23'0 0.0
2017-Nov-10 13:56N 28°05' W 015°23'0 0.0
2017-Nov-10 13:20N 28°05' W 015°23'0 0.0
2017-Nov-10 12:56N 28°05' W 015°23'0 0.1
2017-Nov-10 12:26N 28°05' W 015°23'0 0.0
2017-Nov-10 11:56N 28°05' W 015°23'0 0.0
2017-Nov-10 11:30N 28°05' W 015°23'0 0.0
2017-Nov-10 11:00N 28°05' W 015°23'0 0.1
2017-Nov-10 10:30N 28°05' W 015°23'1 1.4
2017-Nov-10 10:00N 28°06' W 015°23'2 3.3
2017-Nov-10 09:30N 28°07' W 015°22'2 4.2
2017-Nov-10 09:00N 28°07' W 015°20'4 7.2
2017-Nov-10 08:30N 28°08' W 015°16'4 7.7
2017-Nov-10 08:00N 28°09' W 015°12'4 7.8
2017-Nov-10 07:30N 28°10' W 015°07'4 7.3
2017-Nov-10 07:00N 28°09' W 015°03'4 7.3
2017-Nov-10 06:30N 28°08' W 014°59'4 7.2
2017-Nov-10 06:00N 28°07' W 014°55'3 5.6
2017-Nov-10 05:30N 28°04' W 014°56'3 6.3
2017-Nov-10 05:00N 28°02' W 014°57'3 6.1
2017-Nov-10 04:30N 27°59' W 014°58'3 6.1
2017-Nov-10 04:00N 27°56' W 014°60'3 6.4
2017-Nov-10 03:30N 27°53' W 015°01'3 6.2
2017-Nov-10 03:00N 27°50' W 015°03'3 6.1
2017-Nov-10 02:30N 27°47' W 015°04'3 6.0
2017-Nov-10 02:00N 27°45' W 015°06'3 5.9
2017-Nov-10 01:30N 27°43' W 015°08'3 5.7
2017-Nov-10 01:00N 27°40' W 015°10'3 5.4
2017-Nov-10 00:30N 27°38' W 015°12'3 5.9
2017-Nov-10 00:00N 27°37' W 015°15'32 6.7
2017-Nov-09 19:12N 27°21' W 015°46'  
Track history (hours):
 
Tides and Currents Weather Stations Pressure Air Temp Water Temp Dewpoint Dewpoint Depression Visibility Wind Speed Wind Dir Waves Ship Positions

Seas 1

Last reported at 2017-Nov-15 04:23 UTC. Time now 2017-Nov-23 13:05 UTC.
Position N 28°54' W 014°42'.
Warning: this ship's position is 8 days out of date.

Length 190 m; draft 10.5 m.

Type: Cargo ship. MMSI: 636015292.

Date/timePositionNaut miles runAvg speedWind from/ knotsBaromVisibWave heightAir tempDewpointWater temp
2017-Nov-15 04:23N 28°54' W 014°42'410.5
2017-Nov-15 03:59N 28°50' W 014°42'510.3
2017-Nov-15 03:30N 28°45' W 014°43'510.1
2017-Nov-15 03:00N 28°40' W 014°43'510.3
2017-Nov-15 02:30N 28°35' W 014°43'5 9.9
2017-Nov-15 02:00N 28°30' W 014°45'510.3
2017-Nov-15 01:31N 28°26' W 014°46'510.5
2017-Nov-15 01:00N 28°21' W 014°49'510.5
2017-Nov-15 00:31N 28°16' W 014°51'510.5
2017-Nov-15 00:01N 28°11' W 014°53'510.4
2017-Nov-14 23:31N 28°06' W 014°56'5 9.4
2017-Nov-14 23:00N 28°05' W 015°01'510.6
2017-Nov-14 22:30N 28°05' W 015°07'510.9
2017-Nov-14 22:00N 28°05' W 015°13'510.8
2017-Nov-14 21:30N 28°06' W 015°19'5 9.5
2017-Nov-14 21:00N 28°07' W 015°24'0 0.8
2017-Nov-14 20:30N 28°07' W 015°25'0 0.0
2017-Nov-14 20:00N 28°07' W 015°25'0 0.0
2017-Nov-14 19:30N 28°07' W 015°25'0 0.0
2017-Nov-14 19:00N 28°07' W 015°25'0 0.0
2017-Nov-14 18:30N 28°07' W 015°25'0 0.0
2017-Nov-14 18:00N 28°07' W 015°25'0 0.0
2017-Nov-14 17:30N 28°07' W 015°25'0 0.0
2017-Nov-14 16:51N 28°07' W 015°25'0 0.1
2017-Nov-14 16:18N 28°07' W 015°25'0 0.0
2017-Nov-14 15:54N 28°07' W 015°25'0 0.0
2017-Nov-14 15:21N 28°07' W 015°25'0 0.0
2017-Nov-14 14:54N 28°07' W 015°25'0 0.0
2017-Nov-14 14:24N 28°07' W 015°25'0 0.0
2017-Nov-14 13:54N 28°07' W 015°25'0 0.0
2017-Nov-14 13:24N 28°07' W 015°25'0 0.1
2017-Nov-14 12:57N 28°07' W 015°25'0 0.0
2017-Nov-14 12:27N 28°07' W 015°25'0 0.1
2017-Nov-14 11:57N 28°07' W 015°25'0 0.1
2017-Nov-14 11:27N 28°07' W 015°25'0 0.0
2017-Nov-14 10:57N 28°07' W 015°25'0 0.1
2017-Nov-14 10:30N 28°07' W 015°25'0 0.0
2017-Nov-14 10:00N 28°07' W 015°25'0 0.1
2017-Nov-14 09:30N 28°07' W 015°25'0 0.0
2017-Nov-14 09:00N 28°07' W 015°25'0 0.0
2017-Nov-14 08:30N 28°07' W 015°25'0 0.1
2017-Nov-14 08:00N 28°07' W 015°25'2 3.9
2017-Nov-14 07:30N 28°06' W 015°23'1 1.6
2017-Nov-14 06:58N 28°05' W 015°23'0 0.1
2017-Nov-14 06:28N 28°05' W 015°23'0 0.0
2017-Nov-14 05:58N 28°05' W 015°23'0 0.0
2017-Nov-14 05:28N 28°05' W 015°23'0 0.0
2017-Nov-14 04:46N 28°05' W 015°23'0 0.0
2017-Nov-14 04:28N 28°05' W 015°23'0 0.0
2017-Nov-14 03:58N 28°05' W 015°23'0 0.0
2017-Nov-14 03:19N 28°05' W 015°23'0 0.0
2017-Nov-14 02:49N 28°05' W 015°23'0 0.0
2017-Nov-14 02:28N 28°05' W 015°23'0 0.1
2017-Nov-14 01:58N 28°05' W 015°23'0 0.0
2017-Nov-14 01:19N 28°05' W 015°23'0 0.0
2017-Nov-14 00:49N 28°05' W 015°23'0 0.0
2017-Nov-14 00:22N 28°05' W 015°23'0 0.0
2017-Nov-13 23:52N 28°05' W 015°23'0 0.0
2017-Nov-13 23:22N 28°05' W 015°23'0 0.1
2017-Nov-13 22:52N 28°05' W 015°23'0 0.0
2017-Nov-13 22:22N 28°05' W 015°23'0 0.0
2017-Nov-13 21:55N 28°05' W 015°23'0 0.0
2017-Nov-13 01:58N 28°05' W 015°23'0 0.0
2017-Nov-13 01:28N 28°05' W 015°23'0 0.0
2017-Nov-13 00:58N 28°05' W 015°23'0 0.0
2017-Nov-13 00:28N 28°05' W 015°23'0 0.0
2017-Nov-12 23:58N 28°05' W 015°23'0 0.0
2017-Nov-12 23:28N 28°05' W 015°23'0 0.0
2017-Nov-12 22:58N 28°05' W 015°23'0 0.0
2017-Nov-12 22:28N 28°05' W 015°23'0 0.0
2017-Nov-12 21:49N 28°05' W 015°23'0 0.0
2017-Nov-12 21:19N 28°05' W 015°23'0 0.0
2017-Nov-12 20:52N 28°05' W 015°23'0 0.0
2017-Nov-12 20:22N 28°05' W 015°23'0 0.0
2017-Nov-12 19:52N 28°05' W 015°23'0 0.0
2017-Nov-12 19:19N 28°05' W 015°23'0 0.0
2017-Nov-12 18:52N 28°05' W 015°23'0 0.0
2017-Nov-12 18:22N 28°05' W 015°23'0 0.1
2017-Nov-12 17:52N 28°05' W 015°23'0 0.0
2017-Nov-12 17:25N 28°05' W 015°23'0 0.0
2017-Nov-12 16:55N 28°05' W 015°23'0 0.1
2017-Nov-12 16:22N 28°05' W 015°23'0 0.1
2017-Nov-12 15:52N 28°05' W 015°23'0 0.0
2017-Nov-12 15:25N 28°05' W 015°23'0 0.0
2017-Nov-12 14:58N 28°05' W 015°23'0 0.0
2017-Nov-12 14:28N 28°05' W 015°23'0 0.0
2017-Nov-12 13:58N 28°05' W 015°23'0 0.0
2017-Nov-12 13:29N 28°05' W 015°23'0 0.1
2017-Nov-12 12:59N 28°05' W 015°23'0 0.0
2017-Nov-12 12:20N 28°05' W 015°23'0 0.0
2017-Nov-12 11:47N 28°05' W 015°23'0 0.0
2017-Nov-12 11:20N 28°05' W 015°23'0 0.1
2017-Nov-12 10:53N 28°05' W 015°23'0 0.0
2017-Nov-12 10:23N 28°05' W 015°23'0 0.0
2017-Nov-12 09:53N 28°05' W 015°23'0 0.0
2017-Nov-12 09:23N 28°05' W 015°23'0 0.1
2017-Nov-12 08:53N 28°05' W 015°23'0 0.0
2017-Nov-12 08:26N 28°05' W 015°23'0 0.0
2017-Nov-12 07:56N 28°05' W 015°23'0 0.0
2017-Nov-12 07:26N 28°05' W 015°23'0 0.0
2017-Nov-12 06:56N 28°05' W 015°23'0 0.0
2017-Nov-12 06:26N 28°05' W 015°23'0 0.0
2017-Nov-12 05:59N 28°05' W 015°23'0 0.0
2017-Nov-12 05:26N 28°05' W 015°23'0 0.0
2017-Nov-12 04:56N 28°05' W 015°23'0 0.0
2017-Nov-12 04:29N 28°05' W 015°23'0 0.0
2017-Nov-12 03:59N 28°05' W 015°23'0 0.0
2017-Nov-12 03:29N 28°05' W 015°23'0 0.0
2017-Nov-12 02:59N 28°05' W 015°23'0 0.0
2017-Nov-12 02:29N 28°05' W 015°23'0 0.0
2017-Nov-12 01:59N 28°05' W 015°23'0 0.0
2017-Nov-12 01:14N 28°05' W 015°23'0 0.0
2017-Nov-12 00:47N 28°05' W 015°23'0 0.1
2017-Nov-12 00:29N 28°05' W 015°23'0 0.0
2017-Nov-11 23:59N 28°05' W 015°23'0 0.0
2017-Nov-11 23:20N 28°05' W 015°23'0 0.1
2017-Nov-11 22:59N 28°05' W 015°23'0 0.0
2017-Nov-11 22:20N 28°05' W 015°23'0 0.0
2017-Nov-11 21:50N 28°05' W 015°23'0 0.0
2017-Nov-11 21:20N 28°05' W 015°23'0 0.0
2017-Nov-11 20:50N 28°05' W 015°23'0 0.0
2017-Nov-11 20:23N 28°05' W 015°23'0 0.0
2017-Nov-11 19:53N 28°05' W 015°23'0 0.0
2017-Nov-11 19:23N 28°05' W 015°23'0 0.0
2017-Nov-11 18:53N 28°05' W 015°23'0 0.0
2017-Nov-11 18:23N 28°05' W 015°23'0 0.0
2017-Nov-11 17:56N 28°05' W 015°23'0 0.0
2017-Nov-11 17:26N 28°05' W 015°23'0 0.0
2017-Nov-11 16:56N 28°05' W 015°23'0 0.0
2017-Nov-11 16:11N 28°05' W 015°23'0 0.0
2017-Nov-11 15:56N 28°05' W 015°23'0 0.0
2017-Nov-11 15:29N 28°05' W 015°23'0 0.0
2017-Nov-11 14:59N 28°05' W 015°23'0 0.0
2017-Nov-11 14:29N 28°05' W 015°23'0 0.0
2017-Nov-11 13:56N 28°05' W 015°23'0 0.0
2017-Nov-11 13:29N 28°05' W 015°23'0 0.0
2017-Nov-11 12:59N 28°05' W 015°23'0 0.0
2017-Nov-11 12:29N 28°05' W 015°23'0 0.0
2017-Nov-11 11:59N 28°05' W 015°23'0 0.0
2017-Nov-11 11:17N 28°05' W 015°23'0 0.1
2017-Nov-11 10:47N 28°05' W 015°23'0 0.1
2017-Nov-11 10:29N 28°05' W 015°23'0 0.1
2017-Nov-11 09:59N 28°05' W 015°23'0 0.0
2017-Nov-11 09:29N 28°05' W 015°23'0 0.0
2017-Nov-11 08:59N 28°05' W 015°23'0 0.0
2017-Nov-11 08:29N 28°05' W 015°23'0 0.1
2017-Nov-11 07:59N 28°05' W 015°23'0 0.1
2017-Nov-11 07:23N 28°05' W 015°23'0 0.0
2017-Nov-11 06:59N 28°05' W 015°23'0 0.0
2017-Nov-11 06:23N 28°05' W 015°23'0 0.0
2017-Nov-11 05:53N 28°05' W 015°23'0 0.0
2017-Nov-11 05:26N 28°05' W 015°23'0 0.0
2017-Nov-11 04:53N 28°05' W 015°23'0 0.0
2017-Nov-11 04:26N 28°05' W 015°23'0 0.0
2017-Nov-11 03:59N 28°05' W 015°23'0 0.0
2017-Nov-11 03:26N 28°05' W 015°23'0 0.0
2017-Nov-11 02:56N 28°05' W 015°23'0 0.0
2017-Nov-11 02:26N 28°05' W 015°23'0 0.0
2017-Nov-11 01:56N 28°05' W 015°23'0 0.0
2017-Nov-11 01:26N 28°05' W 015°23'0 0.1
2017-Nov-11 00:59N 28°05' W 015°23'0 0.0
2017-Nov-11 00:29N 28°05' W 015°23'0 0.1
2017-Nov-10 23:59N 28°05' W 015°23'0 0.0
2017-Nov-10 23:29N 28°05' W 015°23'0 0.0
2017-Nov-10 22:56N 28°05' W 015°23'0 0.0
2017-Nov-10 22:26N 28°05' W 015°23'0 0.0
2017-Nov-10 21:59N 28°05' W 015°23'0 0.0
2017-Nov-10 21:29N 28°05' W 015°23'0 0.1
2017-Nov-10 20:59N 28°05' W 015°23'0 0.0
2017-Nov-10 20:29N 28°05' W 015°23'0 0.0
2017-Nov-10 19:59N 28°05' W 015°23'0 0.0
2017-Nov-10 19:29N 28°05' W 015°23'0 0.0
2017-Nov-10 18:59N 28°05' W 015°23'0 0.0
2017-Nov-10 18:20N 28°05' W 015°23'0 0.0
2017-Nov-10 17:50N 28°05' W 015°23'0 0.0
2017-Nov-10 17:20N 28°05' W 015°23'0 0.0
2017-Nov-10 16:53N 28°05' W 015°23'0 0.1
2017-Nov-10 16:08N 28°05' W 015°23'0 0.0
2017-Nov-10 15:50N 28°05' W 015°23'0 0.0
2017-Nov-10 15:23N 28°05' W 015°23'0 0.0
2017-Nov-10 14:50N 28°05' W 015°23'0 0.0
2017-Nov-10 14:23N 28°05' W 015°23'0 0.0
2017-Nov-10 13:56N 28°05' W 015°23'0 0.0
2017-Nov-10 13:20N 28°05' W 015°23'0 0.0
2017-Nov-10 12:56N 28°05' W 015°23'0 0.1
2017-Nov-10 12:26N 28°05' W 015°23'0 0.0
2017-Nov-10 11:56N 28°05' W 015°23'0 0.0
2017-Nov-10 11:30N 28°05' W 015°23'0 0.0
2017-Nov-10 11:00N 28°05' W 015°23'0 0.1
2017-Nov-10 10:30N 28°05' W 015°23'1 1.4
2017-Nov-10 10:00N 28°06' W 015°23'2 3.3
2017-Nov-10 09:30N 28°07' W 015°22'2 4.2
2017-Nov-10 09:00N 28°07' W 015°20'4 7.2
2017-Nov-10 08:30N 28°08' W 015°16'4 7.7
2017-Nov-10 08:00N 28°09' W 015°12'4 7.8
2017-Nov-10 07:30N 28°10' W 015°07'4 7.3
2017-Nov-10 07:00N 28°09' W 015°03'4 7.3
2017-Nov-10 06:30N 28°08' W 014°59'4 7.2
2017-Nov-10 06:00N 28°07' W 014°55'3 5.6
2017-Nov-10 05:30N 28°04' W 014°56'3 6.3
2017-Nov-10 05:00N 28°02' W 014°57'3 6.1
2017-Nov-10 04:30N 27°59' W 014°58'3 6.1
2017-Nov-10 04:00N 27°56' W 014°60'3 6.4
2017-Nov-10 03:30N 27°53' W 015°01'3 6.2
2017-Nov-10 03:00N 27°50' W 015°03'3 6.1
2017-Nov-10 02:30N 27°47' W 015°04'3 6.0
2017-Nov-10 02:00N 27°45' W 015°06'3 5.9
2017-Nov-10 01:30N 27°43' W 015°08'3 5.7
2017-Nov-10 01:00N 27°40' W 015°10'3 5.4
2017-Nov-10 00:30N 27°38' W 015°12'3 5.9
2017-Nov-10 00:00N 27°37' W 015°15'32 6.7
2017-Nov-09 19:12N 27°21' W 015°46'  

Dump ship's entire track history